createdAt,value
2022-10-01T00:00:35.694Z,92.15
2022-10-01T00:01:36.391Z,92.15
2022-10-01T00:02:35.700Z,91.74
2022-10-01T00:03:35.656Z,91.33
2022-10-01T00:05:35.630Z,92.19
2022-10-01T00:06:35.618Z,92.40
2022-10-01T00:07:35.603Z,92.25
2022-10-01T00:08:35.592Z,91.94
2022-10-01T00:09:35.599Z,91.47
2022-10-01T00:10:35.566Z,91.68
2022-10-01T00:11:35.986Z,92.19
2022-10-01T00:12:35.540Z,92.29
2022-10-01T00:13:35.526Z,92.50
2022-10-01T00:14:35.514Z,92.40
2022-10-01T00:16:35.530Z,92.29
2022-10-01T00:17:35.473Z,92.50
2022-10-01T00:18:35.462Z,92.44
2022-10-01T00:19:35.446Z,92.34
2022-10-01T00:20:35.436Z,92.34
2022-10-01T00:21:35.759Z,92.13
2022-10-01T00:22:35.410Z,92.54
2022-10-01T00:23:35.395Z,92.44
2022-10-01T00:24:35.384Z,92.65
2022-10-01T00:25:35.490Z,93.06
2022-10-01T00:27:35.343Z,93.10
2022-10-01T00:28:35.331Z,93.31
2022-10-01T00:29:35.316Z,93.37
2022-10-01T00:30:40.179Z,93.26
2022-10-01T00:31:35.672Z,93.68
2022-10-01T00:32:35.278Z,93.88
2022-10-01T00:33:35.268Z,93.88
2022-10-01T00:34:35.252Z,94.19
2022-10-01T00:35:35.237Z,93.94
2022-10-01T00:36:35.230Z,94.04
2022-10-01T00:38:35.199Z,93.12
2022-10-01T00:39:35.185Z,93.01
2022-10-01T00:40:35.174Z,92.81
2022-10-01T00:41:35.621Z,92.66
2022-10-01T00:42:35.147Z,92.46
2022-10-01T00:43:35.133Z,92.25
2022-10-01T00:44:35.122Z,91.84
2022-10-01T00:45:35.161Z,91.53
2022-10-01T00:46:35.098Z,91.39
2022-10-01T00:47:35.082Z,91.18
2022-10-01T00:49:35.054Z,89.70
2022-10-01T00:50:35.043Z,89.39
2022-10-01T00:51:35.462Z,89.19
2022-10-01T00:52:35.020Z,88.78
2022-10-01T00:53:35.004Z,88.98
2022-10-01T00:54:34.991Z,88.78
2022-10-01T00:55:34.977Z,88.88
2022-10-01T00:56:34.966Z,88.98
2022-10-01T00:57:34.973Z,88.78
2022-10-01T00:58:34.940Z,88.78
2022-10-01T01:00:34.915Z,89.59
2022-10-01T01:01:35.202Z,90.01
2022-10-01T01:02:34.993Z,90.63
2022-10-01T01:03:34.876Z,90.31
2022-10-01T01:04:34.864Z,90.42
2022-10-01T01:05:34.852Z,90.31
2022-10-01T01:06:34.840Z,90.63
2022-10-01T01:07:34.827Z,90.21
2022-10-01T01:08:34.813Z,90.11
2022-10-01T01:09:34.801Z,90.21
2022-10-01T01:11:35.184Z,90.21
2022-10-01T01:12:34.763Z,90.42
2022-10-01T01:13:34.772Z,90.31
2022-10-01T01:14:34.741Z,90.42
2022-10-01T01:15:34.811Z,90.21
2022-10-01T01:16:34.711Z,90.01
2022-10-01T01:17:34.698Z,89.35
2022-10-01T01:18:34.686Z,88.90
2022-10-01T01:19:34.670Z,88.07
2022-10-01T01:20:34.660Z,87.87
2022-10-01T01:22:34.632Z,87.26
2022-10-01T01:23:34.638Z,87.15
2022-10-01T01:24:34.606Z,87.32
2022-10-01T01:25:34.593Z,87.42
2022-10-01T01:26:34.588Z,87.32
2022-10-01T01:27:34.568Z,87.21
2022-10-01T01:28:34.555Z,87.11
2022-10-01T01:29:34.570Z,87.01
2022-10-01T01:30:34.530Z,86.97
2022-10-01T01:31:34.827Z,86.66
2022-10-01T01:33:34.492Z,85.90
2022-10-01T01:34:34.476Z,85.60
2022-10-01T01:35:34.462Z,85.39
2022-10-01T01:36:34.450Z,85.39
2022-10-01T01:37:34.437Z,85.29
2022-10-01T01:38:34.426Z,84.98
2022-10-01T01:39:34.412Z,85.29
2022-10-01T01:40:34.397Z,85.60
2022-10-01T01:41:34.583Z,85.25
2022-10-01T01:42:34.369Z,84.49
2022-10-01T01:44:34.342Z,82.67
2022-10-01T01:45:34.400Z,81.71
2022-10-01T01:46:34.314Z,81.10
2022-10-01T01:47:34.301Z,80.45
2022-10-01T01:48:34.287Z,80.01
2022-10-01T01:49:34.273Z,79.49
2022-10-01T01:50:34.262Z,78.88
2022-10-01T01:51:34.500Z,78.54
2022-10-01T01:52:34.236Z,78.33
2022-10-01T01:53:34.222Z,78.13
2022-10-01T01:55:34.196Z,77.82
2022-10-01T01:56:34.184Z,77.62
2022-10-01T01:57:34.170Z,77.52
2022-10-01T01:58:34.157Z,77.31
2022-10-01T01:59:34.145Z,77.17
2022-10-01T02:00:34.136Z,76.97
2022-10-01T02:01:34.460Z,76.77
2022-10-01T02:02:34.116Z,76.77
2022-10-01T02:03:34.091Z,76.77
2022-10-01T02:04:34.082Z,76.77
2022-10-01T02:06:34.054Z,76.77
2022-10-01T02:07:34.040Z,76.62
2022-10-01T02:08:34.027Z,76.62
2022-10-01T02:09:34.013Z,76.62
2022-10-01T02:10:34.000Z,76.66
2022-10-01T02:11:34.307Z,76.73
2022-10-01T02:12:33.975Z,76.73
2022-10-01T02:13:33.960Z,76.73
2022-10-01T02:14:33.948Z,76.83
2022-10-01T02:15:33.989Z,76.73
2022-10-01T02:17:33.929Z,76.83
2022-10-01T02:18:33.896Z,76.93
2022-10-01T02:19:33.881Z,77.14
2022-10-01T02:20:33.869Z,77.03
2022-10-01T02:21:34.127Z,77.03
2022-10-01T02:22:33.843Z,77.44
2022-10-01T02:23:33.830Z,77.24
2022-10-01T02:24:33.827Z,77.48
2022-10-01T02:25:33.802Z,77.55
2022-10-01T02:26:33.793Z,77.55
2022-10-01T02:28:33.764Z,77.64
2022-10-01T02:29:33.749Z,78.16
2022-10-01T02:30:33.738Z,78.26
2022-10-01T02:31:34.164Z,78.36
2022-10-01T02:32:33.712Z,78.91
2022-10-01T02:33:33.718Z,79.32
2022-10-01T02:34:33.685Z,80.37
2022-10-01T02:35:33.670Z,80.48
2022-10-01T02:36:33.661Z,81.09
2022-10-01T02:37:33.644Z,81.33
2022-10-01T02:39:33.619Z,82.45
2022-10-01T02:40:33.611Z,83.07
2022-10-01T02:41:33.943Z,83.85
2022-10-01T02:42:33.580Z,84.57
2022-10-01T02:43:33.565Z,85.01
2022-10-01T02:44:33.553Z,84.71
2022-10-01T02:45:33.599Z,85.72
2022-10-01T02:46:33.527Z,85.97
2022-10-01T02:47:33.517Z,85.97
2022-10-01T02:48:33.501Z,86.89
2022-10-01T02:50:33.474Z,87.20
2022-10-01T02:51:33.617Z,87.71
2022-10-01T02:52:33.448Z,88.01
2022-10-01T02:53:33.435Z,88.53
2022-10-01T02:54:33.422Z,88.83
2022-10-01T02:55:33.408Z,89.24
2022-10-01T02:56:33.396Z,89.55
2022-10-01T02:57:33.383Z,89.18
2022-10-01T02:58:33.370Z,89.34
2022-10-01T02:59:33.356Z,89.75
2022-10-01T03:01:33.540Z,90.41
2022-10-01T03:02:33.389Z,90.61
2022-10-01T03:03:33.304Z,90.67
2022-10-01T03:04:33.292Z,90.51
2022-10-01T03:05:33.301Z,90.20
2022-10-01T03:06:33.266Z,90.72
2022-10-01T03:07:33.251Z,90.92
2022-10-01T03:08:33.241Z,90.61
2022-10-01T03:09:33.225Z,91.22
2022-10-01T03:10:33.213Z,91.43
2022-10-01T03:12:33.220Z,91.74
2022-10-01T03:13:33.171Z,91.33
2022-10-01T03:14:33.160Z,91.43
2022-10-01T03:15:33.144Z,91.74
2022-10-01T03:16:33.136Z,91.43
2022-10-01T03:17:33.118Z,91.58
2022-10-01T03:18:33.105Z,91.78
2022-10-01T03:19:33.090Z,92.09
2022-10-01T03:20:33.079Z,92.91
2022-10-01T03:21:33.374Z,92.81
2022-10-01T03:23:33.039Z,92.81
2022-10-01T03:24:33.022Z,93.01
2022-10-01T03:25:33.011Z,93.42
2022-10-01T03:26:32.996Z,93.32
2022-10-01T03:27:32.986Z,93.56
2022-10-01T03:28:32.967Z,93.98
2022-10-01T03:29:32.956Z,94.14
2022-10-01T03:30:32.941Z,94.24
2022-10-01T03:31:33.381Z,94.14
2022-10-01T03:32:32.914Z,94.18
2022-10-01T03:34:32.887Z,94.39
2022-10-01T03:35:32.874Z,94.28
2022-10-01T03:36:32.860Z,94.28
2022-10-01T03:37:32.873Z,94.48
2022-10-01T03:38:32.832Z,94.69
2022-10-01T03:39:32.820Z,94.79
2022-10-01T03:40:32.806Z,95.00
2022-10-01T03:41:33.078Z,95.72
2022-10-01T03:42:32.781Z,96.23
2022-10-01T03:43:32.766Z,96.17
2022-10-01T03:45:32.755Z,96.27
2022-10-01T03:46:32.730Z,96.47
2022-10-01T03:47:32.712Z,96.27
2022-10-01T03:48:32.696Z,96.68
2022-10-01T03:49:32.685Z,96.38
2022-10-01T03:50:32.669Z,96.47
2022-10-01T03:51:33.086Z,96.58
2022-10-01T03:52:32.645Z,96.47
2022-10-01T03:53:32.654Z,96.58
2022-10-01T03:54:32.616Z,96.78
2022-10-01T03:56:32.589Z,96.89
2022-10-01T03:57:32.577Z,96.78
2022-10-01T03:58:32.562Z,96.78
2022-10-01T03:59:32.551Z,96.89
2022-10-01T04:00:32.535Z,96.68
2022-10-01T04:01:32.991Z,96.68
2022-10-01T04:02:32.645Z,96.99
2022-10-01T04:03:32.497Z,96.89
2022-10-01T04:04:32.480Z,96.99
2022-10-01T04:05:32.468Z,96.89
2022-10-01T04:07:32.441Z,96.89
2022-10-01T04:08:32.428Z,96.89
2022-10-01T04:09:32.438Z,96.99
2022-10-01T04:10:32.399Z,97.09
2022-10-01T04:11:32.826Z,97.19
2022-10-01T04:12:32.372Z,97.19
2022-10-01T04:13:32.359Z,96.89
2022-10-01T04:14:32.345Z,96.78
2022-10-01T04:15:32.333Z,96.78
2022-10-01T04:16:32.347Z,96.58
2022-10-01T04:18:32.290Z,96.78
2022-10-01T04:19:32.278Z,96.78
2022-10-01T04:20:32.265Z,96.68
2022-10-01T04:21:32.694Z,96.78
2022-10-01T04:22:32.236Z,96.89
2022-10-01T04:23:32.225Z,96.99
2022-10-01T04:24:32.211Z,96.99
2022-10-01T04:25:32.223Z,96.58
2022-10-01T04:26:32.183Z,96.89
2022-10-01T04:27:32.171Z,96.99
2022-10-01T04:29:34.708Z,96.99
2022-10-01T04:30:32.130Z,96.99
2022-10-01T04:31:32.578Z,96.78
2022-10-01T04:32:32.103Z,96.89
2022-10-01T04:33:32.091Z,97.09
2022-10-01T04:34:32.076Z,96.89
2022-10-01T04:35:32.065Z,96.99
2022-10-01T04:36:32.049Z,96.99
2022-10-01T04:37:32.037Z,96.99
2022-10-01T04:38:32.022Z,96.89
2022-10-01T04:40:31.995Z,97.19
2022-10-01T04:41:32.305Z,97.09
2022-10-01T04:42:31.967Z,97.09
2022-10-01T04:43:31.955Z,97.09
2022-10-01T04:44:31.940Z,97.30
2022-10-01T04:45:31.929Z,97.09
2022-10-01T04:46:31.977Z,97.09
2022-10-01T04:47:35.587Z,97.30
2022-10-01T04:48:31.887Z,97.19
2022-10-01T04:51:32.146Z,97.60
2022-10-01T04:52:31.833Z,97.71
2022-10-01T04:53:31.823Z,97.91
2022-10-01T04:54:31.808Z,97.81
2022-10-01T04:55:31.797Z,97.91
2022-10-01T04:56:31.781Z,98.01
2022-10-01T04:57:31.792Z,98.01
2022-10-01T04:58:31.758Z,98.12
2022-10-01T04:59:31.749Z,98.12
2022-10-01T05:00:31.731Z,98.12
2022-10-01T05:02:31.749Z,97.81
2022-10-01T05:03:31.699Z,97.91
2022-10-01T05:04:31.678Z,97.71
2022-10-01T05:05:31.665Z,98.01
2022-10-01T05:06:31.652Z,97.91
2022-10-01T05:07:31.638Z,98.01
2022-10-01T05:08:31.628Z,97.91
2022-10-01T05:09:31.611Z,97.81
2022-10-01T05:10:31.596Z,98.01
2022-10-01T05:11:31.884Z,98.01
2022-10-01T05:13:31.582Z,97.81
2022-10-01T05:14:31.551Z,98.12
2022-10-01T05:15:31.531Z,97.91
2022-10-01T05:16:31.542Z,97.81
2022-10-01T05:17:31.502Z,98.12
2022-10-01T05:18:31.486Z,98.12
2022-10-01T05:19:31.474Z,98.32
2022-10-01T05:20:31.459Z,98.32
2022-10-01T05:21:31.767Z,98.22
2022-10-01T05:22:31.433Z,98.42
2022-10-01T05:24:31.408Z,98.42
2022-10-01T05:25:31.395Z,98.32
2022-10-01T05:26:31.380Z,98.42
2022-10-01T05:27:31.366Z,98.52
2022-10-01T05:28:31.419Z,98.42
2022-10-01T05:29:31.363Z,98.42
2022-10-01T05:30:31.334Z,98.42
2022-10-01T05:31:31.685Z,98.52
2022-10-01T05:32:31.298Z,98.42
2022-10-01T05:33:31.287Z,98.63
2022-10-01T05:35:31.259Z,98.52
2022-10-01T05:36:31.245Z,98.52
2022-10-01T05:37:31.234Z,98.52
2022-10-01T05:38:31.219Z,98.42
2022-10-01T05:39:31.207Z,98.52
2022-10-01T05:40:31.195Z,98.52
2022-10-01T05:41:31.354Z,98.52
2022-10-01T05:42:31.165Z,98.63
2022-10-01T05:43:31.154Z,98.63
2022-10-01T05:44:31.140Z,98.48
2022-10-01T05:46:31.112Z,98.58
2022-10-01T05:47:31.100Z,98.58
2022-10-01T05:48:31.086Z,98.42
2022-10-01T05:49:31.075Z,98.48
2022-10-01T05:50:31.063Z,98.48
2022-10-01T05:51:31.177Z,98.48
2022-10-01T05:52:31.035Z,98.27
2022-10-01T05:53:31.020Z,98.38
2022-10-01T05:54:31.007Z,98.48
2022-10-01T05:55:30.995Z,98.48
2022-10-01T05:57:30.971Z,98.48
2022-10-01T05:58:30.952Z,98.27
2022-10-01T05:59:32.033Z,98.58
2022-10-01T06:00:30.929Z,98.38
2022-10-01T06:01:31.071Z,98.33
2022-10-01T06:02:31.014Z,98.23
2022-10-01T06:03:30.886Z,98.23
2022-10-01T06:04:30.873Z,98.13
2022-10-01T06:05:30.859Z,97.82
2022-10-01T06:06:30.846Z,98.02
2022-10-01T06:08:30.817Z,98.13
2022-10-01T06:09:30.805Z,98.33
2022-10-01T06:10:30.794Z,98.43
2022-10-01T06:11:30.782Z,98.43
2022-10-01T06:12:30.764Z,98.33
2022-10-01T06:13:30.753Z,98.33
2022-10-01T06:14:30.736Z,98.33
2022-10-01T06:15:30.724Z,98.39
2022-10-01T06:16:30.813Z,98.33
2022-10-01T06:17:30.721Z,98.33
2022-10-01T06:19:30.673Z,98.33
2022-10-01T06:20:30.657Z,98.54
2022-10-01T06:21:30.799Z,98.33
2022-10-01T06:22:30.635Z,98.43
2022-10-01T06:23:30.618Z,98.64
2022-10-01T06:24:30.604Z,98.43
2022-10-01T06:25:30.596Z,98.54
2022-10-01T06:26:30.577Z,98.54
2022-10-01T06:27:30.564Z,98.54
2022-10-01T06:28:30.667Z,98.33
2022-10-01T06:30:30.523Z,98.64
2022-10-01T06:31:30.637Z,98.54
2022-10-01T06:32:34.713Z,98.43
2022-10-01T06:33:30.508Z,98.64
2022-10-01T06:34:30.471Z,98.43
2022-10-01T06:35:30.464Z,98.64
2022-10-01T06:36:30.446Z,98.54
2022-10-01T06:37:30.435Z,98.64
2022-10-01T06:38:30.418Z,98.64
2022-10-01T06:39:30.406Z,98.64
2022-10-01T06:41:30.379Z,98.54
2022-10-01T06:42:30.365Z,98.54
2022-10-01T06:43:30.353Z,98.95
2022-10-01T06:44:30.340Z,99.00
2022-10-01T06:45:30.440Z,98.80
2022-10-01T06:46:30.312Z,98.49
2022-10-01T06:47:30.299Z,98.08
2022-10-01T06:48:30.286Z,97.67
2022-10-01T06:49:30.296Z,97.26
2022-10-01T06:50:30.259Z,97.01
2022-10-01T06:52:30.233Z,97.32
2022-10-01T06:53:30.223Z,97.42
2022-10-01T06:54:30.205Z,97.11
2022-10-01T06:55:30.193Z,97.22
2022-10-01T06:56:30.180Z,97.06
2022-10-01T06:57:30.167Z,97.26
2022-10-01T06:58:30.152Z,97.06
2022-10-01T06:59:30.140Z,97.16
2022-10-01T07:00:30.132Z,97.42
2022-10-01T07:01:30.159Z,97.52
2022-10-01T07:03:30.089Z,97.63
2022-10-01T07:04:30.074Z,97.32
2022-10-01T07:05:30.094Z,97.42
2022-10-01T07:06:30.045Z,97.52
2022-10-01T07:07:30.248Z,97.42
2022-10-01T07:08:30.018Z,97.63
2022-10-01T07:09:30.006Z,97.68
2022-10-01T07:10:29.993Z,97.58
2022-10-01T07:11:29.982Z,97.58
2022-10-01T07:12:29.966Z,97.38
2022-10-01T07:14:29.945Z,97.27
2022-10-01T07:15:29.928Z,97.17
2022-10-01T07:16:29.974Z,97.17
2022-10-01T07:17:29.903Z,97.48
2022-10-01T07:18:29.887Z,97.48
2022-10-01T07:19:29.877Z,97.17
2022-10-01T07:20:29.861Z,97.27
2022-10-01T07:21:29.874Z,97.27
2022-10-01T07:22:29.839Z,97.33
2022-10-01T07:23:29.853Z,97.43
2022-10-01T07:25:29.798Z,97.74
2022-10-01T07:26:29.785Z,97.74
2022-10-01T07:27:29.791Z,97.43
2022-10-01T07:28:29.808Z,97.39
2022-10-01T07:29:29.746Z,97.39
2022-10-01T07:30:29.732Z,97.43
2022-10-01T07:31:29.860Z,97.54
2022-10-01T07:32:29.706Z,97.02
2022-10-01T07:33:29.702Z,96.92
2022-10-01T07:34:29.681Z,96.92
2022-10-01T07:36:29.653Z,97.02
2022-10-01T07:37:29.665Z,97.02
2022-10-01T07:38:29.629Z,97.02
2022-10-01T07:39:29.614Z,96.82
2022-10-01T07:40:29.605Z,97.02
2022-10-01T07:41:29.588Z,97.13
2022-10-01T07:42:29.576Z,97.13
2022-10-01T07:43:29.563Z,97.23
2022-10-01T07:44:29.559Z,96.92
2022-10-01T07:45:29.655Z,97.13
2022-10-01T07:47:29.509Z,96.92
2022-10-01T07:48:29.500Z,96.92
2022-10-01T07:49:29.484Z,96.92
2022-10-01T07:50:29.472Z,96.67
2022-10-01T07:51:29.464Z,96.41
2022-10-01T07:52:29.446Z,96.31
2022-10-01T07:53:29.453Z,96.36
2022-10-01T07:54:29.419Z,96.27
2022-10-01T07:55:29.405Z,96.47
2022-10-01T07:56:29.393Z,96.47
2022-10-01T07:58:29.368Z,95.95
2022-10-01T07:59:29.353Z,95.55
2022-10-01T08:00:29.341Z,95.34
2022-10-01T08:01:29.398Z,95.04
2022-10-01T08:02:29.357Z,94.28
2022-10-01T08:03:29.300Z,94.18
2022-10-01T08:04:29.289Z,93.87
2022-10-01T08:05:29.274Z,93.97
2022-10-01T08:06:29.261Z,94.18
2022-10-01T08:07:29.250Z,93.77
2022-10-01T08:09:29.244Z,93.87
2022-10-01T08:10:29.208Z,93.87
2022-10-01T08:11:29.196Z,93.87
2022-10-01T08:12:29.181Z,93.83
2022-10-01T08:13:29.169Z,93.83
2022-10-01T08:14:29.156Z,93.21
2022-10-01T08:15:29.151Z,93.01
2022-10-01T08:16:29.252Z,93.12
2022-10-01T08:17:29.692Z,92.19
2022-10-01T08:18:29.105Z,91.74
2022-10-01T08:20:29.080Z,91.95
2022-10-01T08:21:29.064Z,91.85
2022-10-01T08:22:29.050Z,91.85
2022-10-01T08:23:29.036Z,91.65
2022-10-01T08:24:29.025Z,91.65
2022-10-01T08:25:29.035Z,92.15
2022-10-01T08:26:28.999Z,92.15
2022-10-01T08:27:28.984Z,92.26
2022-10-01T08:28:29.039Z,91.74
2022-10-01T08:29:28.960Z,91.85
2022-10-01T08:31:29.064Z,92.76
2022-10-01T08:32:28.921Z,92.93
2022-10-01T08:33:28.907Z,92.15
2022-10-01T08:34:28.895Z,92.62
2022-10-01T08:35:28.879Z,91.80
2022-10-01T08:36:28.869Z,91.09
2022-10-01T08:37:28.860Z,91.66
2022-10-01T08:38:28.845Z,90.13
2022-10-01T08:39:28.828Z,90.64
2022-10-01T08:40:28.816Z,90.64
2022-10-01T08:42:28.790Z,90.03
2022-10-01T08:43:28.776Z,90.60
2022-10-01T08:44:28.764Z,90.60
2022-10-01T08:45:28.801Z,90.09
2022-10-01T08:46:28.738Z,90.05
2022-10-01T08:47:28.723Z,90.35
2022-10-01T08:48:28.712Z,89.23
2022-10-01T08:49:28.698Z,90.55
2022-10-01T08:50:28.687Z,90.86
2022-10-01T08:51:28.673Z,90.70
2022-10-01T08:53:28.645Z,91.21
2022-10-01T08:54:28.634Z,90.60
2022-10-01T08:55:28.623Z,91.00
2022-10-01T08:56:28.606Z,91.11
2022-10-01T08:57:28.612Z,90.50
2022-10-01T08:58:28.582Z,90.39
2022-10-01T08:59:28.567Z,90.09
2022-10-01T09:00:28.555Z,90.50
2022-10-01T09:01:28.589Z,90.60
2022-10-01T09:02:28.529Z,90.70
2022-10-01T09:04:28.595Z,91.72
2022-10-01T09:05:28.485Z,92.57
2022-10-01T09:06:28.478Z,93.09
2022-10-01T09:07:28.459Z,93.29
2022-10-01T09:08:28.449Z,94.11
2022-10-01T09:09:28.434Z,94.56
2022-10-01T09:10:28.424Z,94.86
2022-10-01T09:11:28.406Z,95.27
2022-10-01T09:12:28.397Z,95.22
2022-10-01T09:13:28.407Z,95.02
2022-10-01T09:15:28.356Z,95.33
2022-10-01T09:16:28.373Z,95.02
2022-10-01T09:17:28.329Z,94.41
2022-10-01T09:18:28.319Z,93.85
2022-10-01T09:19:28.304Z,93.14
2022-10-01T09:20:28.294Z,92.39
2022-10-01T09:21:28.278Z,92.08
2022-10-01T09:22:28.267Z,91.78
2022-10-01T09:23:28.252Z,91.27
2022-10-01T09:24:28.242Z,90.55
2022-10-01T09:26:28.214Z,90.41
2022-10-01T09:27:28.200Z,89.91
2022-10-01T09:28:28.265Z,90.52
2022-10-01T09:29:28.195Z,90.11
2022-10-01T09:30:28.165Z,90.06
2022-10-01T09:31:28.168Z,89.41
2022-10-01T09:32:28.134Z,88.90
2022-10-01T09:33:28.120Z,88.40
2022-10-01T09:34:28.108Z,89.72
2022-10-01T09:35:28.094Z,88.19
2022-10-01T09:37:28.068Z,89.37
2022-10-01T09:38:28.058Z,89.06
2022-10-01T09:39:28.042Z,89.23
2022-10-01T09:40:28.029Z,88.25
2022-10-01T09:41:28.016Z,88.68
2022-10-01T09:42:28.007Z,87.67
2022-10-01T09:43:27.989Z,86.83
2022-10-01T09:44:27.976Z,86.69
2022-10-01T09:45:28.021Z,87.09
2022-10-01T09:46:27.954Z,86.51
2022-10-01T09:48:27.924Z,85.90
2022-10-01T09:49:27.911Z,87.93
2022-10-01T09:50:27.902Z,86.87
2022-10-01T09:51:27.885Z,87.52
2022-10-01T09:52:27.874Z,85.80
2022-10-01T09:53:27.862Z,86.77
2022-10-01T09:54:27.850Z,87.06
2022-10-01T09:55:27.836Z,87.26
2022-10-01T09:56:27.822Z,86.89
2022-10-01T09:57:27.810Z,87.81
2022-10-01T09:59:27.784Z,89.06
2022-10-01T10:00:27.771Z,89.37
2022-10-01T10:01:27.783Z,89.88
2022-10-01T10:02:27.897Z,89.37
2022-10-01T10:03:27.882Z,88.76
2022-10-01T10:04:27.719Z,88.01
2022-10-01T10:05:27.703Z,86.85
2022-10-01T10:06:27.691Z,86.65
2022-10-01T10:07:27.677Z,87.12
2022-10-01T10:08:27.667Z,86.26
2022-10-01T10:10:33.644Z,86.06
2022-10-01T10:11:27.624Z,85.62
2022-10-01T10:12:27.613Z,85.76
2022-10-01T10:13:27.601Z,86.71
2022-10-01T10:14:27.587Z,87.72
2022-10-01T10:15:27.572Z,87.26
2022-10-01T10:16:27.649Z,88.27
2022-10-01T10:17:27.568Z,88.78
2022-10-01T10:18:27.535Z,88.82
2022-10-01T10:19:27.519Z,89.53
2022-10-01T10:21:27.496Z,91.36
2022-10-01T10:22:27.481Z,91.77
2022-10-01T10:23:27.467Z,91.77
2022-10-01T10:24:27.455Z,92.88
2022-10-01T10:25:27.440Z,93.09
2022-10-01T10:26:27.428Z,93.39
2022-10-01T10:27:27.415Z,93.13
2022-10-01T10:28:27.469Z,93.74
2022-10-01T10:29:27.391Z,93.94
2022-10-01T10:30:27.379Z,93.94
2022-10-01T10:32:27.358Z,95.16
2022-10-01T10:33:27.359Z,95.97
2022-10-01T10:34:27.324Z,96.28
2022-10-01T10:35:27.310Z,95.36
2022-10-01T10:36:27.311Z,95.42
2022-10-01T10:37:27.282Z,95.01
2022-10-01T10:38:27.272Z,95.11
2022-10-01T10:39:27.258Z,94.71
2022-10-01T10:40:29.647Z,94.06
2022-10-01T10:41:27.233Z,93.75
2022-10-01T10:43:27.205Z,94.56
2022-10-01T10:44:27.192Z,94.06
2022-10-01T10:45:27.181Z,94.51
2022-10-01T10:46:27.222Z,94.51
2022-10-01T10:47:27.156Z,94.51
2022-10-01T10:48:27.142Z,94.81
2022-10-01T10:49:27.150Z,94.86
2022-10-01T10:50:27.116Z,95.26
2022-10-01T10:51:27.099Z,95.26
2022-10-01T10:52:27.087Z,95.93
2022-10-01T10:54:27.062Z,95.01
2022-10-01T10:55:27.051Z,95.07
2022-10-01T10:56:27.035Z,93.91
2022-10-01T10:57:27.020Z,94.17
2022-10-01T10:58:27.010Z,92.76
2022-10-01T10:59:26.994Z,89.54
2022-10-01T11:00:26.982Z,87.74
2022-10-01T11:01:27.033Z,86.40
2022-10-01T11:02:26.999Z,85.01
2022-10-01T11:03:26.941Z,85.31
2022-10-01T11:05:26.939Z,83.36
2022-10-01T11:06:26.905Z,83.22
2022-10-01T11:07:26.890Z,83.20
2022-10-01T11:08:26.879Z,80.24
2022-10-01T11:09:26.868Z,79.47
2022-10-01T11:10:26.856Z,79.47
2022-10-01T11:11:26.840Z,80.18
2022-10-01T11:12:26.831Z,80.12
2022-10-01T11:13:26.817Z,82.51
2022-10-01T11:14:26.804Z,83.18
2022-10-01T11:16:26.853Z,79.74
2022-10-01T11:17:26.764Z,76.62
2022-10-01T11:18:26.755Z,77.42
2022-10-01T11:19:26.741Z,78.10
2022-10-01T11:20:26.730Z,77.80
2022-10-01T11:21:26.738Z,79.82
2022-10-01T11:22:26.704Z,78.91
2022-10-01T11:23:26.691Z,78.57
2022-10-01T11:24:26.679Z,80.04
2022-10-01T11:25:26.669Z,78.37
2022-10-01T11:27:26.642Z,78.23
2022-10-01T11:28:26.690Z,76.62
2022-10-01T11:29:26.616Z,76.89
2022-10-01T11:30:26.607Z,74.68
2022-10-01T11:31:26.643Z,75.92
2022-10-01T11:32:26.581Z,75.45
2022-10-01T11:33:26.567Z,76.06
2022-10-01T11:34:26.556Z,76.66
2022-10-01T11:35:26.542Z,74.92
2022-10-01T11:36:26.533Z,75.08
2022-10-01T11:38:26.507Z,72.30
2022-10-01T11:39:26.494Z,73.40
2022-10-01T11:40:26.483Z,72.80
2022-10-01T11:41:26.469Z,72.90
2022-10-01T11:42:26.456Z,72.10
2022-10-01T11:43:26.444Z,73.24
2022-10-01T11:44:26.433Z,72.53
2022-10-01T11:45:26.419Z,72.26
2022-10-01T11:46:26.500Z,72.80
2022-10-01T11:47:26.393Z,71.66
2022-10-01T11:49:26.368Z,70.69
2022-10-01T11:50:26.357Z,70.36
2022-10-01T11:51:26.343Z,72.50
2022-10-01T11:52:26.334Z,71.86
2022-10-01T11:53:26.339Z,70.39
2022-10-01T11:54:26.304Z,69.75
2022-10-01T11:55:26.294Z,68.51
2022-10-01T11:56:26.281Z,71.89
2022-10-01T11:57:26.271Z,71.16
2022-10-01T11:58:26.254Z,67.41
2022-10-01T12:00:27.455Z,68.21
2022-10-01T12:01:26.217Z,69.75
2022-10-01T12:02:26.293Z,70.39
2022-10-01T12:03:26.192Z,71.60
2022-10-01T12:04:26.179Z,70.39
2022-10-01T12:05:26.251Z,70.69
2022-10-01T12:06:29.416Z,69.59
2022-10-01T12:07:26.141Z,69.45
2022-10-01T12:08:26.127Z,70.99
2022-10-01T12:09:26.138Z,73.44
2022-10-01T12:11:26.093Z,70.69
2022-10-01T12:12:26.078Z,68.85
2022-10-01T12:13:26.067Z,68.24
2022-10-01T12:14:26.056Z,68.04
2022-10-01T12:15:26.042Z,68.55
2022-10-01T12:16:26.131Z,67.02
2022-10-01T12:17:26.016Z,65.58
2022-10-01T12:18:26.003Z,65.05
2022-10-01T12:19:25.991Z,63.82
2022-10-01T12:20:25.981Z,63.62
2022-10-01T12:22:25.958Z,62.48
2022-10-01T12:23:25.945Z,64.98
2022-10-01T12:24:25.929Z,67.18
2022-10-01T12:25:25.939Z,69.32
2022-10-01T12:26:25.903Z,68.08
2022-10-01T12:27:25.893Z,69.48
2022-10-01T12:28:25.980Z,68.15
2022-10-01T12:29:25.877Z,66.65
2022-10-01T12:30:25.854Z,66.82
2022-10-01T12:31:25.886Z,64.80
2022-10-01T12:33:25.815Z,69.35
2022-10-01T12:34:25.802Z,69.55
2022-10-01T12:35:25.791Z,70.05
2022-10-01T12:36:25.776Z,69.65
2022-10-01T12:37:25.764Z,70.62
2022-10-01T12:38:25.749Z,70.95
2022-10-01T12:39:25.739Z,71.63
2022-10-01T12:40:25.723Z,70.52
2022-10-01T12:41:25.746Z,70.45
2022-10-01T12:42:25.699Z,70.45
2022-10-01T12:44:25.673Z,69.98
2022-10-01T12:45:25.661Z,70.22
2022-10-01T12:46:25.860Z,69.55
2022-10-01T12:47:25.636Z,70.09
2022-10-01T12:48:25.622Z,69.65
2022-10-01T12:49:25.612Z,70.69
2022-10-01T12:50:25.595Z,70.52
2022-10-01T12:51:25.584Z,70.86
2022-10-01T12:52:25.567Z,71.30
2022-10-01T12:53:25.558Z,70.09
2022-10-01T12:55:25.532Z,65.41
2022-10-01T12:56:25.517Z,62.92
2022-10-01T12:57:25.528Z,63.12
2022-10-01T12:58:25.491Z,62.95
2022-10-01T12:59:25.479Z,62.68
2022-10-01T13:00:25.465Z,62.65
2022-10-01T13:01:25.507Z,64.07
2022-10-01T13:02:25.480Z,65.30
2022-10-01T13:03:25.428Z,65.81
2022-10-01T13:04:25.414Z,66.54
2022-10-01T13:06:25.384Z,69.28
2022-10-01T13:07:25.376Z,69.38
2022-10-01T13:08:25.359Z,67.68
2022-10-01T13:09:25.354Z,66.34
2022-10-01T13:10:25.335Z,66.54
2022-10-01T13:11:25.324Z,67.61
2022-10-01T13:12:25.309Z,65.88
2022-10-01T13:13:25.320Z,63.55
2022-10-01T13:14:25.283Z,62.02
2022-10-01T13:15:25.271Z,61.19
2022-10-01T13:17:25.244Z,64.34
2022-10-01T13:18:25.228Z,64.91
2022-10-01T13:19:25.217Z,64.15
2022-10-01T13:20:25.202Z,63.48
2022-10-01T13:21:25.191Z,64.94
2022-10-01T13:22:25.178Z,65.24
2022-10-01T13:23:25.165Z,64.18
2022-10-01T13:24:25.150Z,62.71
2022-10-01T13:25:25.142Z,61.96
2022-10-01T13:26:25.125Z,60.66
2022-10-01T13:28:25.133Z,59.63
2022-10-01T13:29:25.112Z,60.66
2022-10-01T13:30:25.074Z,61.24
2022-10-01T13:31:25.147Z,65.07
2022-10-01T13:32:25.059Z,65.35
2022-10-01T13:33:25.037Z,65.71
2022-10-01T13:34:25.022Z,65.50
2022-10-01T13:35:25.010Z,65.47
2022-10-01T13:36:24.995Z,65.04
2022-10-01T13:37:24.984Z,62.75
2022-10-01T13:39:24.957Z,65.20
2022-10-01T13:40:24.943Z,66.87
2022-10-01T13:41:24.931Z,66.21
2022-10-01T13:42:24.918Z,63.38
2022-10-01T13:43:24.906Z,61.22
2022-10-01T13:44:24.893Z,61.98
2022-10-01T13:45:24.909Z,63.21
2022-10-01T13:46:24.950Z,62.85
2022-10-01T13:47:24.856Z,61.16
2022-10-01T13:48:24.841Z,60.03
2022-10-01T13:50:24.820Z,60.74
2022-10-01T13:51:24.804Z,63.51
2022-10-01T13:52:24.787Z,64.34
2022-10-01T13:53:24.775Z,65.47
2022-10-01T13:54:24.761Z,64.64
2022-10-01T13:55:24.752Z,64.14
2022-10-01T13:56:24.737Z,66.64
2022-10-01T13:57:24.726Z,66.87
2022-10-01T13:58:24.713Z,67.54
2022-10-01T13:59:24.706Z,68.54
2022-10-01T14:01:24.825Z,69.18
2022-10-01T14:02:24.786Z,70.49
2022-10-01T14:03:24.650Z,70.49
2022-10-01T14:04:24.634Z,71.22
2022-10-01T14:05:24.628Z,71.93
2022-10-01T14:06:24.608Z,72.43
2022-10-01T14:07:24.596Z,72.13
2022-10-01T14:08:24.582Z,68.95
2022-10-01T14:09:24.569Z,66.14
2022-10-01T14:10:24.556Z,67.11